Time;durP1;ratioP1;P1;durP2;ratioP2;P2;SDS_P1;SDS_P2;PMS_P1;PMS_P2;Temp;Humidity;BMP_temperature;BMP_pressure;BME280_temperature;BME280_humidity;BME280_pressure;Samples;Min_cycle;Max_cycle;Signal;HPM_P1;HPM_P2
2023/08/05 00:00:02;;;;;;;4.55;1.85;;;15.40;99.90;;;;;;5066598;28;20442;-67
2023/08/05 00:02:28;;;;;;;4.82;1.75;;;15.40;99.90;;;;;;5064933;28;20044;-66
2023/08/05 00:04:54;;;;;;;5.22;1.38;;;15.50;99.90;;;;;;5064524;28;20045;-67
2023/08/05 00:07:19;;;;;;;8.48;1.83;;;15.40;99.90;;;;;;5067169;28;20051;-67
2023/08/05 00:09:45;;;;;;;7.30;1.58;;;15.40;99.90;;;;;;5067766;28;20090;-67
2023/08/05 00:12:11;;;;;;;7.63;1.88;;;15.40;99.90;;;;;;5086660;28;20490;-68
2023/08/05 00:14:37;;;;;;;5.15;1.95;;;15.40;99.90;;;;;;5068394;28;20044;-67
2023/08/05 00:17:03;;;;;;;6.82;2.08;;;15.40;99.90;;;;;;5086606;28;20076;-67
2023/08/05 00:19:29;;;;;;;8.05;2.17;;;15.50;99.90;;;;;;5054132;28;20060;-67
2023/08/05 00:21:54;;;;;;;5.65;1.70;;;15.40;99.90;;;;;;5085219;28;20078;-67
2023/08/05 00:24:20;;;;;;;6.63;1.65;;;15.50;99.90;;;;;;5086471;28;20044;-67
2023/08/05 00:26:46;;;;;;;6.35;1.90;;;15.50;99.90;;;;;;5069188;28;20075;-67
2023/08/05 00:29:11;;;;;;;6.05;1.88;;;15.40;99.90;;;;;;5071458;28;20048;-67
2023/08/05 00:31:37;;;;;;;6.55;1.77;;;15.50;99.90;;;;;;5085174;28;20170;-67
2023/08/05 00:34:03;;;;;;;9.18;1.60;;;15.40;99.90;;;;;;5086162;28;20087;-67
2023/08/05 00:36:28;;;;;;;3.17;1.10;;;15.40;99.90;;;;;;5069469;28;20052;-68
2023/08/05 00:38:54;;;;;;;4.90;1.48;;;15.40;99.90;;;;;;5086233;28;20048;-67
2023/08/05 00:41:20;;;;;;;6.85;1.40;;;15.40;99.90;;;;;;5068593;28;20063;-67
2023/08/05 00:43:45;;;;;;;7.55;1.50;;;15.40;99.90;;;;;;5085323;28;20298;-67
2023/08/05 00:46:12;;;;;;;2.38;1.35;;;15.40;99.90;;;;;;5086325;28;20475;-67
2023/08/05 00:48:38;;;;;;;3.45;1.38;;;15.30;99.90;;;;;;5069205;28;20059;-67
2023/08/05 00:51:06;;;;;;;2.40;1.50;;;15.30;99.90;;;;;;5070387;28;20087;-67
2023/08/05 00:53:33;;;;;;;3.25;1.30;;;15.40;99.90;;;;;;5068828;28;20043;-67
2023/08/05 00:55:59;;;;;;;8.20;1.65;;;15.40;99.90;;;;;;5068941;28;20578;-67
2023/08/05 00:58:26;;;;;;;5.22;1.52;;;15.30;99.90;;;;;;5068722;28;20132;-67
2023/08/05 01:00:52;;;;;;;6.97;1.80;;;15.30;99.90;;;;;;5068528;28;20060;-68
2023/08/05 01:03:18;;;;;;;4.78;1.77;;;15.30;99.90;;;;;;5070361;28;20082;-67
2023/08/05 01:05:47;;;;;;;4.20;1.67;;;15.30;99.90;;;;;;5068939;28;20113;-67
2023/08/05 01:08:13;;;;;;;3.97;1.88;;;15.30;99.90;;;;;;5070408;28;20037;-68
2023/08/05 01:10:39;;;;;;;6.30;1.85;;;15.30;99.90;;;;;;5068480;28;20040;-67
2023/08/05 01:13:04;;;;;;;10.70;1.95;;;15.30;99.90;;;;;;5068406;28;20059;-67
2023/08/05 01:15:30;;;;;;;5.82;1.88;;;15.30;99.90;;;;;;5067611;28;20052;-66
2023/08/05 01:17:57;;;;;;;3.53;1.48;;;15.30;99.90;;;;;;5084945;28;20097;-66
2023/08/05 01:20:32;;;;;;;6.53;1.77;;;15.30;99.90;;;;;;5068951;28;20094;-67
2023/08/05 01:23:07;;;;;;;4.00;1.73;;;15.30;99.90;;;;;;5067723;28;20127;-67
2023/08/05 01:25:34;;;;;;;4.90;1.58;;;15.20;99.90;;;;;;5069971;28;20040;-67
2023/08/05 01:28:02;;;;;;;5.80;1.60;;;15.20;99.90;;;;;;5067905;28;20052;-66
2023/08/05 01:30:29;;;;;;;4.50;1.73;;;15.20;99.90;;;;;;5069581;28;20033;-66
2023/08/05 01:32:59;;;;;;;4.20;1.88;;;15.20;99.90;;;;;;5066914;28;20045;-67
2023/08/05 01:35:25;;;;;;;6.25;1.65;;;15.20;99.90;;;;;;5069349;28;20122;-66
2023/08/05 01:37:51;;;;;;;4.40;1.65;;;15.20;99.90;;;;;;5066456;28;20048;-67
2023/08/05 01:40:16;;;;;;;5.25;1.50;;;15.20;99.90;;;;;;5050566;28;20060;-67
2023/08/05 01:42:42;;;;;;;2.47;1.55;;;15.20;99.90;;;;;;5070003;28;20508;-66
2023/08/05 01:45:08;;;;;;;2.50;1.60;;;15.20;99.90;;;;;;5066531;28;20047;-66
2023/08/05 01:47:34;;;;;;;4.18;2.20;;;15.20;99.90;;;;;;5070115;28;20551;-66
2023/08/05 01:49:59;;;;;;;9.15;2.30;;;15.20;99.90;;;;;;5067806;28;20087;-66
2023/08/05 01:52:25;;;;;;;4.13;1.80;;;15.20;99.90;;;;;;5069097;28;20580;-66
2023/08/05 01:54:52;;;;;;;4.72;1.98;;;15.10;99.90;;;;;;5068045;28;20059;-66
2023/08/05 01:57:18;;;;;;;3.58;1.55;;;15.20;99.90;;;;;;5068792;28;20151;-66
2023/08/05 01:59:44;;;;;;;5.85;1.83;;;15.20;99.90;;;;;;5051351;28;20139;-66
2023/08/05 02:02:09;;;;;;;5.50;1.90;;;15.20;99.90;;;;;;5067408;28;20029;-66
2023/08/05 02:04:35;;;;;;;4.80;1.77;;;15.10;99.90;;;;;;5069315;28;20044;-67
2023/08/05 02:07:01;;;;;;;7.68;1.80;;;15.20;99.90;;;;;;5065715;28;20391;-66
2023/08/05 02:09:26;;;;;;;5.88;1.75;;;15.10;99.90;;;;;;5079521;28;20033;-67
2023/08/05 02:11:52;;;;;;;6.45;1.75;;;15.10;99.90;;;;;;5059184;28;20516;-66
2023/08/05 02:14:18;;;;;;;3.97;1.75;;;15.00;99.90;;;;;;5067639;28;20041;-67
2023/08/05 02:16:43;;;;;;;4.45;2.05;;;15.00;99.90;;;;;;5084183;28;20471;-66
2023/08/05 02:19:09;;;;;;;4.85;2.05;;;15.00;99.90;;;;;;5067839;28;20118;-66
2023/08/05 02:21:35;;;;;;;5.60;2.17;;;15.00;99.90;;;;;;5069174;28;20071;-66
2023/08/05 02:24:00;;;;;;;3.20;1.70;;;14.90;99.90;;;;;;5064538;28;20458;-66
2023/08/05 02:26:26;;;;;;;5.43;1.70;;;14.90;99.90;;;;;;5083286;28;20033;-66
2023/08/05 02:28:52;;;;;;;4.03;1.73;;;14.90;99.90;;;;;;5067574;28;20045;-67
2023/08/05 02:31:18;;;;;;;11.65;1.70;;;14.90;99.90;;;;;;5068375;28;20044;-66
2023/08/05 02:33:43;;;;;;;2.75;1.65;;;14.80;99.90;;;;;;5066225;28;20052;-66
2023/08/05 02:36:09;;;;;;;8.30;2.00;;;14.80;99.90;;;;;;5066429;28;20552;-66
2023/08/05 02:38:35;;;;;;;3.67;1.90;;;14.80;99.90;;;;;;5068607;28;20040;-66
2023/08/05 02:41:05;;;;;;;4.10;1.77;;;14.80;99.90;;;;;;5066641;28;20548;-66
2023/08/05 02:43:31;;;;;;;5.10;2.05;;;14.70;99.90;;;;;;5068551;28;20047;-66
2023/08/05 02:45:57;;;;;;;3.03;1.70;;;14.70;99.90;;;;;;5066946;28;20048;-67
2023/08/05 02:48:24;;;;;;;2.55;2.08;;;14.70;99.90;;;;;;5067084;28;20054;-66
2023/08/05 02:50:51;;;;;;;6.53;2.35;;;14.60;99.90;;;;;;5067305;28;20032;-66
2023/08/05 02:53:17;;;;;;;4.57;2.03;;;14.70;99.90;;;;;;5067659;28;20068;-66
2023/08/05 02:55:43;;;;;;;7.65;2.33;;;14.60;99.90;;;;;;5066806;28;20121;-66
2023/08/05 02:58:09;;;;;;;5.18;2.00;;;14.60;99.90;;;;;;5066450;28;20049;-66
2023/08/05 03:00:35;;;;;;;2.03;1.83;;;14.60;99.90;;;;;;5068253;28;20081;-66
2023/08/05 03:03:02;;;;;;;3.33;1.90;;;14.60;99.90;;;;;;5065557;28;20148;-67
2023/08/05 03:05:28;;;;;;;3.28;1.88;;;14.50;99.90;;;;;;5066319;28;20371;-66
2023/08/05 03:07:54;;;;;;;3.20;2.00;;;14.50;99.90;;;;;;5066687;28;20070;-66
2023/08/05 03:10:20;;;;;;;1.67;1.55;;;14.50;99.90;;;;;;5070477;28;20060;-66
2023/08/05 03:12:45;;;;;;;3.65;1.77;;;14.50;99.90;;;;;;5065644;28;20497;-66
2023/08/05 03:15:11;;;;;;;2.97;2.10;;;14.50;99.90;;;;;;5067038;28;20103;-66
2023/08/05 03:17:37;;;;;;;3.75;1.45;;;14.40;99.90;;;;;;5049607;28;20058;-66
2023/08/05 03:20:05;;;;;;;4.70;2.63;;;14.40;99.90;;;;;;5066123;28;20472;-67
2023/08/05 03:22:31;;;;;;;1.90;1.70;;;14.30;99.90;;;;;;5067534;28;20088;-66
2023/08/05 03:24:58;;;;;;;3.17;2.13;;;14.30;99.90;;;;;;5066236;28;20396;-66
2023/08/05 03:27:24;;;;;;;4.53;1.95;;;14.30;99.90;;;;;;5067082;28;20510;-67
2023/08/05 03:29:50;;;;;;;2.03;1.52;;;14.30;99.90;;;;;;5065046;28;20048;-66
2023/08/05 03:32:15;;;;;;;4.90;1.80;;;14.20;99.90;;;;;;5067398;28;20532;-66
2023/08/05 03:34:41;;;;;;;3.65;1.80;;;14.20;99.90;;;;;;5065223;28;20051;-66
2023/08/05 03:37:07;;;;;;;4.28;2.15;;;14.20;99.90;;;;;;5066009;28;20126;-66
2023/08/05 03:39:32;;;;;;;5.25;1.98;;;14.10;99.90;;;;;;5067427;28;20147;-66
2023/08/05 03:41:58;;;;;;;2.35;1.85;;;14.10;99.90;;;;;;5065428;28;20098;-66
2023/08/05 03:44:24;;;;;;;4.38;2.20;;;14.10;99.90;;;;;;5082518;28;20052;-66
2023/08/05 03:46:49;;;;;;;9.32;2.13;;;14.10;99.90;;;;;;5081343;28;20041;-66
2023/08/05 03:49:15;;;;;;;6.43;2.67;;;14.00;99.90;;;;;;5082931;28;20476;-66
2023/08/05 03:51:41;;;;;;;4.50;1.73;;;14.00;99.90;;;;;;5081291;28;20048;-66
2023/08/05 03:54:06;;;;;;;2.65;1.80;;;14.00;99.90;;;;;;5082330;28;20056;-66
2023/08/05 03:56:32;;;;;;;5.25;2.30;;;14.00;99.90;;;;;;5066783;28;20048;-66
2023/08/05 03:58:58;;;;;;;4.40;2.65;;;14.00;99.90;;;;;;5064557;28;20098;-66
2023/08/05 04:01:26;;;;;;;6.30;1.92;;;14.00;99.90;;;;;;5066786;28;20052;-67
2023/08/05 04:03:52;;;;;;;6.13;2.03;;;14.10;99.90;;;;;;5064240;28;20048;-66
2023/08/05 04:06:20;;;;;;;4.60;2.00;;;14.00;99.90;;;;;;5081898;28;20048;-66
2023/08/05 04:08:48;;;;;;;4.97;2.28;;;14.00;99.90;;;;;;5066378;28;20115;-66
2023/08/05 04:11:14;;;;;;;7.22;2.08;;;14.00;99.90;;;;;;5052499;28;20494;-66
2023/08/05 04:13:40;;;;;;;3.95;2.53;;;14.00;99.90;;;;;;5082285;28;20067;-66
2023/08/05 04:16:08;;;;;;;5.80;2.50;;;14.00;99.90;;;;;;5066069;28;20036;-66
2023/08/05 04:18:36;;;;;;;4.00;2.00;;;14.00;99.90;;;;;;5066776;28;20061;-67
2023/08/05 04:21:08;;;;;;;7.45;2.08;;;14.10;99.90;;;;;;5065936;28;20131;-66
2023/08/05 04:23:34;;;;;;;4.40;2.10;;;14.10;99.90;;;;;;5066838;28;20367;-66
2023/08/05 04:26:02;;;;;;;2.95;1.92;;;14.10;99.90;;;;;;5080802;28;20507;-66
2023/08/05 04:28:28;;;;;;;3.03;1.92;;;14.10;99.90;;;;;;5066685;28;20037;-67
2023/08/05 04:30:54;;;;;;;4.18;1.73;;;14.10;99.90;;;;;;5067098;28;20470;-66
2023/08/05 04:33:20;;;;;;;2.72;2.00;;;14.10;99.90;;;;;;5065386;28;20044;-66
2023/08/05 04:35:47;;;;;;;4.22;1.90;;;14.00;99.90;;;;;;5081236;28;20363;-67
2023/08/05 04:38:18;;;;;;;4.32;1.98;;;14.10;99.90;;;;;;5064310;28;20126;-66
2023/08/05 04:40:44;;;;;;;4.97;2.00;;;14.10;99.90;;;;;;5066466;28;20084;-66
2023/08/05 04:43:10;;;;;;;2.47;1.75;;;14.10;99.90;;;;;;5063426;28;20090;-66
2023/08/05 04:45:36;;;;;;;3.70;1.70;;;14.10;99.90;;;;;;5065952;28;20590;-67
2023/08/05 04:48:04;;;;;;;3.10;1.92;;;14.10;99.90;;;;;;5065386;28;20127;-66
2023/08/05 04:50:30;;;;;;;5.28;1.35;;;14.10;99.90;;;;;;5064054;28;20052;-66
2023/08/05 04:52:55;;;;;;;3.40;1.77;;;14.10;99.90;;;;;;5066321;28;20059;-66
2023/08/05 04:55:21;;;;;;;3.10;1.48;;;14.10;99.90;;;;;;5063945;28;20048;-66
2023/08/05 04:57:52;;;;;;;2.15;1.50;;;14.10;99.90;;;;;;5069653;28;20048;-66
2023/08/05 05:00:18;;;;;;;4.47;1.45;;;14.20;99.90;;;;;;5068481;28;20037;-66
2023/08/05 05:02:44;;;;;;;3.20;1.65;;;14.20;99.90;;;;;;5070312;28;20044;-66
2023/08/05 05:05:10;;;;;;;1.52;1.35;;;14.10;99.90;;;;;;5084546;28;20524;-66
2023/08/05 05:07:36;;;;;;;4.53;1.60;;;14.10;99.90;;;;;;5068948;28;20033;-66
2023/08/05 05:10:02;;;;;;;2.95;1.70;;;14.10;99.90;;;;;;5057964;28;20076;-66
2023/08/05 05:12:28;;;;;;;1.67;1.45;;;14.10;99.90;;;;;;5064287;28;20040;-67
2023/08/05 05:14:53;;;;;;;2.90;1.65;;;14.10;99.90;;;;;;5068721;28;20509;-66
2023/08/05 05:17:21;;;;;;;5.22;1.80;;;14.10;99.90;;;;;;5066429;28;20044;-66
2023/08/05 05:19:47;;;;;;;6.97;1.90;;;14.20;99.90;;;;;;5068401;28;20390;-66
2023/08/05 05:22:17;;;;;;;2.58;1.92;;;14.30;99.90;;;;;;5068531;28;20048;-66
2023/08/05 05:24:44;;;;;;;4.45;1.80;;;14.30;99.90;;;;;;5067348;28;20037;-66
2023/08/05 05:27:13;;;;;;;5.22;1.90;;;14.30;99.90;;;;;;5067732;28;20582;-66
2023/08/05 05:29:39;;;;;;;3.45;1.73;;;14.30;99.90;;;;;;5067450;28;20049;-66
2023/08/05 05:32:05;;;;;;;3.17;1.48;;;14.40;99.90;;;;;;5068793;28;20048;-67
2023/08/05 05:34:31;;;;;;;4.63;1.90;;;14.40;99.90;;;;;;5065935;28;20987;-67
2023/08/05 05:36:57;;;;;;;3.53;1.80;;;14.40;99.90;;;;;;5067257;28;20418;-66
2023/08/05 05:39:23;;;;;;;3.30;2.00;;;14.50;99.90;;;;;;5065887;28;20106;-67
2023/08/05 05:41:48;;;;;;;5.32;1.67;;;14.50;99.90;;;;;;5068673;28;20044;-66
2023/08/05 05:44:14;;;;;;;8.30;1.75;;;14.50;99.90;;;;;;5068557;28;20044;-66
2023/08/05 05:46:40;;;;;;;2.47;1.50;;;14.60;99.90;;;;;;5067782;28;20055;-67
2023/08/05 05:49:06;;;;;;;5.88;1.98;;;14.60;99.90;;;;;;5068753;28;20141;-66
2023/08/05 05:51:34;;;;;;;1.63;1.40;;;14.70;99.90;;;;;;5065756;28;20041;-67
2023/08/05 05:54:00;;;;;;;2.72;1.42;;;14.70;99.90;;;;;;5067502;28;20049;-67
2023/08/05 05:56:25;;;;;;;2.40;1.25;;;14.80;99.90;;;;;;5066545;28;20525;-66
2023/08/05 05:58:51;;;;;;;3.67;1.52;;;14.80;99.90;;;;;;5067300;28;20045;-66
2023/08/05 06:01:17;;;;;;;3.80;1.45;;;14.90;99.90;;;;;;5067896;28;20063;-67
2023/08/05 06:03:43;;;;;;;4.60;1.27;;;15.00;99.90;;;;;;5083405;28;20032;-67
2023/08/05 06:06:09;;;;;;;5.63;1.70;;;15.10;99.90;;;;;;5066244;28;20033;-66
2023/08/05 06:08:36;;;;;;;3.17;1.20;;;15.30;99.90;;;;;;5065354;28;20604;-67
2023/08/05 06:11:06;;;;;;;1.80;1.25;;;15.40;99.90;;;;;;5067368;28;20064;-66
2023/08/05 06:13:32;;;;;;;4.95;1.65;;;15.50;99.90;;;;;;5067052;28;20059;-66
2023/08/05 06:15:57;;;;;;;2.03;1.55;;;15.60;99.90;;;;;;5068850;28;20398;-66
2023/08/05 06:18:23;;;;;;;4.63;1.33;;;15.70;99.90;;;;;;5049285;28;20051;-66
2023/08/05 06:20:49;;;;;;;4.25;1.40;;;15.80;99.90;;;;;;5068425;28;20102;-67
2023/08/05 06:23:15;;;;;;;1.27;1.13;;;15.90;99.90;;;;;;5067629;28;20050;-66
2023/08/05 06:25:42;;;;;;;3.50;1.27;;;16.00;99.90;;;;;;5066043;28;20040;-66
2023/08/05 06:28:08;;;;;;;10.63;1.60;;;16.00;99.90;;;;;;5069321;28;20041;-66
2023/08/05 06:30:34;;;;;;;4.68;1.20;;;16.10;99.90;;;;;;5065805;28;20386;-67
2023/08/05 06:33:00;;;;;;;1.20;1.08;;;16.20;99.90;;;;;;5058640;28;20048;-66
2023/08/05 06:35:26;;;;;;;2.50;1.13;;;16.30;99.90;;;;;;5066890;28;20055;-67
2023/08/05 06:37:52;;;;;;;1.35;1.08;;;16.30;99.90;;;;;;5066109;28;20036;-66
2023/08/05 06:40:18;;;;;;;1.45;1.08;;;16.40;99.90;;;;;;5067495;28;20044;-66
2023/08/05 06:42:44;;;;;;;3.72;1.15;;;16.40;99.90;;;;;;5067772;28;20131;-66
2023/08/05 06:45:10;;;;;;;3.72;0.90;;;16.40;99.90;;;;;;5068647;28;20115;-66
2023/08/05 06:47:36;;;;;;;3.10;0.95;;;16.40;99.90;;;;;;5048633;28;20044;-66
2023/08/05 06:50:05;;;;;;;1.65;1.08;;;16.30;99.90;;;;;;5068382;28;20041;-66
2023/08/05 06:52:31;;;;;;;2.67;1.17;;;16.30;99.90;;;;;;5065540;28;20502;-66
2023/08/05 06:55:00;;;;;;;3.53;1.25;;;16.30;99.90;;;;;;5067319;28;20057;-66
2023/08/05 06:57:26;;;;;;;4.50;0.93;;;16.40;99.90;;;;;;5065466;28;20052;-66
2023/08/05 06:59:52;;;;;;;1.40;0.88;;;16.50;99.90;;;;;;5067633;28;20045;-66
2023/08/05 07:02:17;;;;;;;3.05;1.25;;;16.60;99.90;;;;;;5066285;28;20493;-66
2023/08/05 07:04:43;;;;;;;1.25;1.20;;;16.70;99.90;;;;;;5065318;28;20047;-66
2023/08/05 07:07:09;;;;;;;5.82;1.08;;;16.80;99.90;;;;;;5065163;28;20075;-66
2023/08/05 07:09:36;;;;;;;2.90;1.40;;;16.90;99.90;;;;;;5048112;28;20462;-66
2023/08/05 07:12:02;;;;;;;4.82;1.20;;;17.00;99.90;;;;;;5067410;28;20094;-66
2023/08/05 07:14:28;;;;;;;3.50;1.35;;;17.20;99.90;;;;;;5064129;28;20045;-66
2023/08/05 07:16:54;;;;;;;7.97;1.30;;;17.20;99.90;;;;;;5067645;28;20032;-66
2023/08/05 07:19:19;;;;;;;1.85;1.33;;;17.40;99.90;;;;;;5065344;28;20052;-66
2023/08/05 07:21:45;;;;;;;2.42;1.20;;;17.50;99.90;;;;;;5065635;28;20039;-66
2023/08/05 07:24:11;;;;;;;2.53;1.33;;;17.70;99.90;;;;;;5049625;28;20089;-66
2023/08/05 07:26:36;;;;;;;4.38;1.60;;;17.90;99.90;;;;;;5048076;28;20170;-66
2023/08/05 07:29:02;;;;;;;1.33;1.23;;;18.20;99.90;;;;;;5067613;28;20053;-66
2023/08/05 07:31:28;;;;;;;3.65;1.48;;;18.40;99.90;;;;;;5066350;28;20040;-66
2023/08/05 07:33:54;;;;;;;1.92;1.25;;;18.60;99.90;;;;;;5044535;28;20044;-66
2023/08/05 07:36:22;;;;;;;1.20;1.08;;;18.90;99.90;;;;;;5061568;28;20189;-65
2023/08/05 07:38:50;;;;;;;3.35;1.30;;;19.30;99.90;;;;;;5066502;28;20434;-66
2023/08/05 07:41:16;;;;;;;2.97;1.60;;;19.60;99.90;;;;;;5066688;28;20053;-66
2023/08/05 07:43:42;;;;;;;1.10;0.90;;;20.00;99.10;;;;;;5064785;28;20379;-66
2023/08/05 07:46:11;;;;;;;3.38;1.30;;;20.30;94.50;;;;;;5065805;28;20048;-66
2023/08/05 07:48:39;;;;;;;4.68;1.00;;;20.40;86.30;;;;;;5063026;28;20426;-67
2023/08/05 07:51:06;;;;;;;3.80;1.10;;;20.50;70.00;;;;;;5064931;28;20185;-66
2023/08/05 07:53:36;;;;;;;2.92;1.00;;;20.60;73.60;;;;;;5064544;28;20189;-66
2023/08/05 07:56:11;;;;;;;;;;;20.60;72.30;;;;;;5065570;28;20064;-66
2023/08/05 07:58:44;;;;;;;1.30;1.00;;;20.40;56.20;;;;;;5066952;28;19924;-66
2023/08/05 08:01:12;;;;;;;2.20;1.02;;;20.30;50.30;;;;;;5066059;28;20047;-66
2023/08/05 08:03:38;;;;;;;3.67;0.98;;;20.10;59.30;;;;;;5066823;28;20040;-66
2023/08/05 08:06:04;;;;;;;2.08;0.95;;;20.00;62.40;;;;;;5064833;28;20048;-66
2023/08/05 08:08:29;;;;;;;3.13;1.55;;;20.00;56.40;;;;;;5064544;28;20032;-66
2023/08/05 08:10:55;;;;;;;2.55;1.10;;;19.90;46.90;;;;;;5062645;28;20169;-66
2023/08/05 08:13:21;;;;;;;1.92;0.63;;;19.80;56.40;;;;;;5066459;28;20056;-66
2023/08/05 08:15:47;;;;;;;0.57;0.52;;;19.90;54.50;;;;;;5081724;28;20482;-65
2023/08/05 08:18:12;;;;;;;0.70;0.70;;;20.00;54.00;;;;;;5064859;28;20045;-66
2023/08/05 08:20:38;;;;;;;4.60;0.63;;;20.20;50.20;;;;;;5067259;28;20033;-65
2023/08/05 08:23:04;;;;;;;0.70;0.70;;;20.20;28.90;;;;;;5064433;28;21038;-66
2023/08/05 08:25:29;;;;;;;2.28;0.60;;;20.20;22.00;;;;;;5067373;28;20525;-66
2023/08/05 08:27:55;;;;;;;3.75;0.93;;;20.20;30.90;;;;;;5063552;28;20049;-66
2023/08/05 08:30:21;;;;;;;2.63;0.90;;;20.40;40.90;;;;;;5058963;28;20060;-66
2023/08/05 08:32:46;;;;;;;0.70;0.70;;;20.50;27.50;;;;;;5066157;28;20554;-65
2023/08/05 08:35:12;;;;;;;0.80;0.80;;;20.50;25.60;;;;;;5067083;28;20040;-66
2023/08/05 08:37:38;;;;;;;2.97;0.70;;;20.50;20.70;;;;;;5068433;28;20037;-65
2023/08/05 08:40:04;;;;;;;1.40;0.70;;;20.50;20.40;;;;;;5068113;28;20407;-66
2023/08/05 08:42:31;;;;;;;1.48;0.57;;;20.40;18.90;;;;;;5052599;28;20233;-66
2023/08/05 08:45:00;;;;;;;1.55;0.80;;;20.40;18.80;;;;;;5064821;28;20060;-66
2023/08/05 08:47:27;;;;;;;1.45;0.60;;;20.40;16.30;;;;;;5070183;28;20048;-66
2023/08/05 08:49:53;;;;;;;0.85;0.70;;;20.60;22.40;;;;;;5067984;28;20130;-66
2023/08/05 08:52:20;;;;;;;2.47;1.10;;;20.80;16.10;;;;;;5068884;28;20039;-66
2023/08/05 08:54:50;;;;;;;8.80;0.85;;;21.00;10.90;;;;;;5069961;28;20052;-65
2023/08/05 08:57:16;;;;;;;0.75;0.68;;;21.00;7.40;;;;;;5050954;28;20581;-66
2023/08/05 08:59:43;;;;;;;0.70;0.68;;;21.00;2.90;;;;;;5052691;28;20056;-66
2023/08/05 09:02:15;;;;;;;0.73;0.73;;;21.00;1.00;;;;;;5050723;28;20087;-66
2023/08/05 09:04:44;;;;;;;0.82;0.73;;;21.20;4.30;;;;;;5070672;28;20420;-66
2023/08/05 09:07:10;;;;;;;1.80;0.77;;;21.30;1.00;;;;;;5068420;28;20409;-66
2023/08/05 09:09:36;;;;;;;0.80;0.80;;;21.50;1.00;;;;;;5069924;28;20677;-66
2023/08/05 09:12:02;;;;;;;0.80;0.68;;;21.50;1.00;;;;;;5051579;28;20542;-66
2023/08/05 09:14:28;;;;;;;1.55;0.50;;;21.40;1.00;;;;;;5064820;28;20120;-66
2023/08/05 09:16:58;;;;;;;1.42;0.70;;;21.40;1.00;;;;;;5060857;28;20123;-66
2023/08/05 09:19:25;;;;;;;1.10;0.70;;;21.40;1.00;;;;;;5068734;28;20054;-66
2023/08/05 09:21:52;;;;;;;1.05;0.55;;;21.30;1.00;;;;;;5068784;28;20329;-65
2023/08/05 09:24:25;;;;;;;1.02;0.70;;;21.20;1.00;;;;;;5084553;28;20044;-66
2023/08/05 09:27:00;;;;;;;0.70;0.70;;;21.30;1.00;;;;;;5068517;28;20459;-66
2023/08/05 09:29:27;;;;;;;0.55;0.52;;;21.50;1.00;;;;;;5069362;28;20040;-66
2023/08/05 09:31:56;;;;;;;2.47;0.45;;;21.60;1.00;;;;;;5067181;28;20193;-65
2023/08/05 09:34:31;;;;;;;1.20;0.70;;;21.70;1.00;;;;;;5067080;28;20048;-66
2023/08/05 09:36:57;;;;;;;1.00;0.80;;;21.70;1.00;;;;;;5064289;28;20403;-66
2023/08/05 09:39:23;;;;;;;1.48;0.80;;;21.70;1.00;;;;;;5069595;28;20040;-66
2023/08/05 09:41:52;;;;;;;1.00;0.68;;;21.80;1.00;;;;;;5050183;28;20536;-66
2023/08/05 09:44:18;;;;;;;1.65;0.80;;;21.80;1.00;;;;;;5068965;28;20028;-65
2023/08/05 09:46:46;;;;;;;0.95;0.60;;;21.80;1.00;;;;;;5069746;28;20414;-66
2023/08/05 09:49:14;;;;;;;0.75;0.65;;;21.90;1.00;;;;;;5067117;28;20044;-66
2023/08/05 09:51:42;;;;;;;1.00;0.53;;;21.90;1.00;;;;;;5069688;28;20045;-65
2023/08/05 09:54:13;;;;;;;3.20;0.80;;;21.80;1.00;;;;;;5067362;28;20053;-66
2023/08/05 09:56:40;;;;;;;4.05;0.68;;;21.80;1.00;;;;;;5066940;28;20181;-66
2023/08/05 09:59:08;;;;;;;0.80;0.80;;;21.80;1.00;;;;;;5066437;28;20052;-66
2023/08/05 10:01:37;;;;;;;1.10;0.60;;;21.80;1.00;;;;;;5068869;28;20052;-66
2023/08/05 10:04:03;;;;;;;1.38;0.65;;;21.60;1.00;;;;;;5069253;28;20079;-65
2023/08/05 10:06:30;;;;;;;0.47;0.47;;;21.50;1.00;;;;;;5066258;28;20056;-66
2023/08/05 10:08:56;;;;;;;1.20;0.73;;;21.50;1.00;;;;;;5068803;28;20145;-67
2023/08/05 10:11:23;;;;;;;4.88;0.70;;;21.50;1.00;;;;;;5065922;28;20048;-66
2023/08/05 10:13:53;;;;;;;0.70;0.70;;;21.60;1.00;;;;;;5066432;28;20044;-66
2023/08/05 10:16:20;;;;;;;3.42;0.70;;;21.70;1.00;;;;;;5065767;28;20465;-66
2023/08/05 10:18:48;;;;;;;0.85;0.68;;;21.70;1.00;;;;;;5069016;28;20056;-66
2023/08/05 10:21:37;;;;;;;1.02;0.63;;;21.90;1.00;;;;;;5083250;28;20085;-67
2023/08/05 10:24:03;;;;;;;3.50;0.82;;;22.20;1.00;;;;;;5067024;28;20056;-67
2023/08/05 10:26:45;;;;;;;1.13;0.60;;;22.40;1.00;;;;;;5067263;28;20036;-66
2023/08/05 10:29:30;;;;;;;1.17;0.60;;;22.20;1.00;;;;;;5066970;28;20083;-66
2023/08/05 10:32:13;;;;;;;0.77;0.77;;;22.10;1.00;;;;;;5058106;28;20480;-66
2023/08/05 10:34:39;;;;;;;0.52;0.52;;;22.20;1.00;;;;;;5068382;28;20075;-66
2023/08/05 10:37:05;;;;;;;0.93;0.70;;;22.20;1.00;;;;;;5065886;28;20074;-66
2023/08/05 10:39:39;;;;;;;2.10;0.70;;;22.10;1.00;;;;;;5067553;28;20166;-66
2023/08/05 10:42:17;;;;;;;1.05;0.70;;;22.00;1.00;;;;;;5065675;28;20057;-66
2023/08/05 10:44:43;;;;;;;0.75;0.75;;;22.10;1.00;;;;;;5065064;28;20059;-66
2023/08/05 10:47:09;;;;;;;4.13;0.88;;;22.30;1.00;;;;;;5066996;28;20041;-66
2023/08/05 10:49:36;;;;;;;0.90;0.70;;;22.50;1.00;;;;;;5067083;28;20036;-66
2023/08/05 10:52:02;;;;;;;0.63;0.63;;;22.60;1.00;;;;;;5066487;28;20051;-66
2023/08/05 10:54:32;;;;;;;0.75;0.68;;;22.60;1.00;;;;;;5061148;28;20052;-66
2023/08/05 10:56:58;;;;;;;0.93;0.70;;;22.70;1.00;;;;;;5066332;28;20115;-66
2023/08/05 10:59:24;;;;;;;0.70;0.70;;;22.80;1.00;;;;;;5066419;28;20144;-66
2023/08/05 11:01:57;;;;;;;2.58;0.80;;;22.90;1.00;;;;;;5068088;28;20066;-66
2023/08/05 11:04:27;;;;;;;1.45;0.90;;;22.70;1.00;;;;;;5065940;28;20052;-66
2023/08/05 11:06:55;;;;;;;0.77;0.40;;;22.70;1.00;;;;;;5066474;28;20439;-66
2023/08/05 11:09:22;;;;;;;1.35;0.75;;;22.60;1.00;;;;;;5067533;28;20028;-66
2023/08/05 11:11:51;;;;;;;0.50;0.50;;;22.40;1.00;;;;;;5066188;28;20045;-66
2023/08/05 11:14:19;;;;;;;0.70;0.70;;;22.20;1.00;;;;;;5067030;28;20098;-66
2023/08/05 11:16:47;;;;;;;0.52;0.50;;;22.00;1.00;;;;;;5063761;28;20095;-66
2023/08/05 11:19:15;;;;;;;0.40;0.40;;;21.80;1.00;;;;;;5064927;28;20069;-66
2023/08/05 11:21:45;;;;;;;0.50;0.50;;;21.70;1.00;;;;;;5066697;28;20045;-67
2023/08/05 11:24:20;;;;;;;0.82;0.60;;;21.60;1.00;;;;;;5063773;28;20052;-66
2023/08/05 11:26:49;;;;;;;2.30;0.70;;;21.70;1.00;;;;;;5068000;28;20127;-67
2023/08/05 11:29:15;;;;;;;0.70;0.70;;;21.80;1.00;;;;;;5064375;28;20063;-67
2023/08/05 11:31:50;;;;;;;0.60;0.50;;;22.00;1.00;;;;;;5067501;28;20510;-68
2023/08/05 11:34:21;;;;;;;0.88;0.70;;;22.00;1.00;;;;;;5081563;28;20053;-66
2023/08/05 11:36:57;;;;;;;0.70;0.70;;;22.00;1.00;;;;;;5058562;28;20051;-66
2023/08/05 11:39:26;;;;;;;0.90;0.80;;;22.00;1.00;;;;;;5065247;28;20043;-67
2023/08/05 11:41:53;;;;;;;0.52;0.50;;;22.00;1.00;;;;;;5064622;28;20048;-67
2023/08/05 11:44:21;;;;;;;2.47;0.85;;;21.90;1.00;;;;;;5065178;28;20048;-67
2023/08/05 11:46:47;;;;;;;0.45;0.43;;;21.80;1.00;;;;;;5064238;28;20422;-67
2023/08/05 11:49:14;;;;;;;0.85;0.80;;;21.70;1.00;;;;;;5064447;28;20089;-67
2023/08/05 11:51:53;;;;;;;1.10;0.85;;;21.70;1.00;;;;;;5064222;28;20037;-66
2023/08/05 11:54:32;;;;;;;1.13;0.80;;;21.70;1.00;;;;;;5064943;28;20052;-67
2023/08/05 11:56:59;;;;;;;0.60;0.60;;;21.60;1.00;;;;;;5066815;28;20494;-68
2023/08/05 11:59:37;;;;;;;0.60;0.60;;;21.50;1.00;;;;;;5064062;28;20132;-67
2023/08/05 12:02:04;;;;;;;0.85;0.70;;;21.40;1.00;;;;;;5067262;28;20048;-66
2023/08/05 12:04:29;;;;;;;2.92;0.90;;;21.40;1.00;;;;;;5075169;28;20075;-67
2023/08/05 12:06:55;;;;;;;0.70;0.70;;;21.40;1.00;;;;;;5067164;28;20080;-67
2023/08/05 12:09:21;;;;;;;3.67;1.10;;;21.40;1.00;;;;;;5066879;28;20045;-67
2023/08/05 12:11:47;;;;;;;1.23;0.88;;;21.50;1.00;;;;;;5064543;28;20100;-67
2023/08/05 12:14:12;;;;;;;1.42;0.95;;;21.50;1.00;;;;;;5082399;28;20057;-67
2023/08/05 12:16:38;;;;;;;1.08;1.00;;;21.50;1.00;;;;;;5065357;28;20040;-68
2023/08/05 12:19:04;;;;;;;3.13;2.22;;;21.50;1.00;;;;;;5066988;28;20060;-67
2023/08/05 12:21:30;;;;;;;1.00;0.88;;;21.50;1.00;;;;;;5065053;28;20542;-67
2023/08/05 12:23:55;;;;;;;0.90;0.90;;;21.50;1.00;;;;;;5066491;28;20128;-67
2023/08/05 12:26:27;;;;;;;1.60;0.80;;;21.40;1.00;;;;;;5065580;28;20131;-67
2023/08/05 12:28:53;;;;;;;1.92;0.70;;;21.40;1.00;;;;;;5065906;28;20063;-68
2023/08/05 12:31:19;;;;;;;0.98;0.98;;;21.50;1.00;;;;;;5082904;28;20032;-67
2023/08/05 12:33:44;;;;;;;1.23;0.90;;;21.50;1.00;;;;;;5065583;28;20123;-67
2023/08/05 12:36:10;;;;;;;0.52;0.52;;;21.60;1.00;;;;;;5066885;28;20566;-68
2023/08/05 12:38:36;;;;;;;1.20;0.68;;;21.70;1.00;;;;;;5065033;28;20299;-67
2023/08/05 12:41:02;;;;;;;1.25;0.63;;;21.70;1.00;;;;;;5080598;28;20436;-68
2023/08/05 12:43:28;;;;;;;0.57;0.55;;;21.80;1.00;;;;;;5065007;28;20093;-68
2023/08/05 12:45:53;;;;;;;3.80;0.75;;;21.80;1.00;;;;;;5063986;28;20490;-68
2023/08/05 12:48:19;;;;;;;4.53;0.70;;;21.70;1.00;;;;;;5079783;28;20043;-67